Time;durP1;ratioP1;P1;durP2;ratioP2;P2;SDS_P1;SDS_P2;PMS_P1;PMS_P2;Temp;Humidity;BMP_temperature;BMP_pressure;BME280_temperature;BME280_humidity;BME280_pressure;Samples;Min_cycle;Max_cycle;Signal;HPM_P1;HPM_P2
2021/06/14 00:02:11;;;;;;;1.00;0.77;;;26.90;41.70;;;;;;5049120;28;20039;-60
2021/06/14 00:04:36;;;;;;;1.27;0.70;;;26.90;41.80;;;;;;5056877;28;20033;-60
2021/06/14 00:07:02;;;;;;;1.50;0.80;;;26.90;41.80;;;;;;5058379;28;20020;-60
2021/06/14 00:09:30;;;;;;;1.38;0.82;;;26.90;41.80;;;;;;5056497;28;20116;-60
2021/06/14 00:11:57;;;;;;;0.80;0.73;;;26.80;41.70;;;;;;5064330;28;20109;-61
2021/06/14 00:14:23;;;;;;;0.82;0.70;;;26.80;41.80;;;;;;5053210;28;20112;-61
2021/06/14 00:16:49;;;;;;;0.80;0.70;;;26.90;41.90;;;;;;5048918;28;20032;-60
2021/06/14 00:19:15;;;;;;;0.70;0.68;;;26.80;41.80;;;;;;5061118;28;20082;-60
2021/06/14 00:21:40;;;;;;;1.35;0.80;;;26.80;41.80;;;;;;5059436;28;20432;-60
2021/06/14 00:24:07;;;;;;;0.73;0.60;;;26.80;41.80;;;;;;5061461;28;20406;-61
2021/06/14 00:26:33;;;;;;;0.85;0.70;;;26.80;41.80;;;;;;5069552;28;20048;-60
2021/06/14 00:29:00;;;;;;;0.82;0.80;;;26.80;41.90;;;;;;5065997;28;20042;-60
2021/06/14 00:31:25;;;;;;;1.20;0.80;;;26.70;41.80;;;;;;5053147;28;20068;-60
2021/06/14 00:33:51;;;;;;;1.10;0.70;;;26.70;41.80;;;;;;5058816;28;20076;-60
2021/06/14 00:36:17;;;;;;;0.98;0.70;;;26.70;41.90;;;;;;5046034;28;20025;-60
2021/06/14 00:38:43;;;;;;;1.15;0.75;;;26.70;41.90;;;;;;5056542;28;20032;-60
2021/06/14 00:41:11;;;;;;;1.17;0.77;;;26.70;41.90;;;;;;5057698;28;20037;-59
2021/06/14 00:43:38;;;;;;;1.30;0.88;;;26.70;41.90;;;;;;5065077;28;20059;-61
2021/06/14 00:46:04;;;;;;;0.90;0.75;;;26.70;41.90;;;;;;5056265;28;20029;-60
2021/06/14 00:48:29;;;;;;;1.02;0.82;;;26.70;42.00;;;;;;5065015;28;20036;-59
2021/06/14 00:50:58;;;;;;;1.10;0.70;;;26.70;42.00;;;;;;5062417;28;20037;-60
2021/06/14 00:53:30;;;;;;;1.15;0.70;;;26.70;42.00;;;;;;5045761;28;20111;-60
2021/06/14 00:55:58;;;;;;;0.68;0.68;;;26.70;42.00;;;;;;5057123;28;20056;-60
2021/06/14 00:58:24;;;;;;;1.00;0.70;;;26.60;42.00;;;;;;5065887;28;20028;-59
2021/06/14 01:00:50;;;;;;;1.10;0.70;;;26.60;42.00;;;;;;5062185;28;20069;-60
2021/06/14 01:03:16;;;;;;;1.02;0.80;;;26.60;42.00;;;;;;5048354;28;20037;-60
2021/06/14 01:05:46;;;;;;;0.88;0.70;;;26.60;42.00;;;;;;5053418;28;20031;-60
2021/06/14 01:08:12;;;;;;;0.85;0.70;;;26.60;42.00;;;;;;5051409;28;20242;-60
2021/06/14 01:10:39;;;;;;;0.77;0.70;;;26.60;42.00;;;;;;5063089;28;20160;-60
2021/06/14 01:13:25;;;;;;;0.80;0.73;;;26.60;42.10;;;;;;5055370;28;20769;-60
2021/06/14 01:16:16;;;;;;;1.23;0.73;;;26.60;42.00;;;;;;5062224;28;20122;-60
2021/06/14 01:19:01;;;;;;;1.58;0.85;;;26.50;42.00;;;;;;5066136;28;20112;-60
2021/06/14 01:21:35;;;;;;;0.80;0.70;;;26.60;42.10;;;;;;5049076;28;20120;-60
2021/06/14 01:24:31;;;;;;;1.40;0.80;;;26.50;42.00;;;;;;5057855;28;20360;-60
2021/06/14 01:27:07;;;;;;;1.08;0.73;;;26.50;42.00;;;;;;5055250;28;20068;-60
2021/06/14 01:29:36;;;;;;;1.23;0.80;;;26.50;42.10;;;;;;5051423;28;20021;-60
2021/06/14 01:32:04;;;;;;;0.98;0.80;;;26.50;42.10;;;;;;5066411;28;20044;-60
2021/06/14 01:34:32;;;;;;;1.10;0.90;;;26.50;42.20;;;;;;5057677;28;20325;-60
2021/06/14 01:37:00;;;;;;;1.95;1.00;;;26.50;42.20;;;;;;5052833;28;20025;-60
2021/06/14 01:39:28;;;;;;;1.35;0.80;;;26.40;42.10;;;;;;5056604;28;20025;-60
2021/06/14 01:41:55;;;;;;;1.30;0.77;;;26.50;42.20;;;;;;5053469;28;20052;-60
2021/06/14 01:44:22;;;;;;;1.58;0.88;;;26.50;42.20;;;;;;5047613;28;20036;-61
2021/06/14 01:46:50;;;;;;;1.27;0.80;;;26.40;42.20;;;;;;5052059;28;20052;-60
2021/06/14 01:49:17;;;;;;;1.15;0.80;;;26.40;42.20;;;;;;5052679;28;20029;-60
2021/06/14 01:51:43;;;;;;;1.17;0.80;;;26.40;42.20;;;;;;5049166;28;20025;-60
2021/06/14 01:54:09;;;;;;;1.83;0.80;;;26.40;42.20;;;;;;5061089;28;20221;-60
2021/06/14 01:56:43;;;;;;;1.40;0.70;;;26.40;42.20;;;;;;5058167;28;20029;-60
2021/06/14 01:59:13;;;;;;;1.05;0.70;;;26.40;42.20;;;;;;5057727;28;20170;-60
2021/06/14 02:01:41;;;;;;;1.17;0.90;;;26.30;42.20;;;;;;5057852;28;20577;-60
2021/06/14 02:04:07;;;;;;;1.00;0.82;;;26.40;42.30;;;;;;5057656;28;20040;-60
2021/06/14 02:06:36;;;;;;;1.40;0.80;;;26.30;42.30;;;;;;5063880;28;20034;-60
2021/06/14 02:09:07;;;;;;;1.00;0.85;;;26.30;42.30;;;;;;5055793;28;20063;-60
2021/06/14 02:11:33;;;;;;;1.33;0.80;;;26.30;42.30;;;;;;5048884;28;20060;-59
2021/06/14 02:14:00;;;;;;;1.15;0.73;;;26.30;42.30;;;;;;5057748;28;20415;-59
2021/06/14 02:16:29;;;;;;;1.50;0.80;;;26.30;42.40;;;;;;5054179;28;20048;-58
2021/06/14 02:18:55;;;;;;;1.08;0.80;;;26.30;42.40;;;;;;5049571;28;20135;-59
2021/06/14 02:21:20;;;;;;;1.30;0.80;;;26.20;42.40;;;;;;5056082;28;20111;-60
2021/06/14 02:23:46;;;;;;;0.82;0.73;;;26.20;42.30;;;;;;5058314;28;20036;-60
2021/06/14 02:26:12;;;;;;;1.08;0.85;;;26.20;42.30;;;;;;5062551;28;20081;-60
2021/06/14 02:28:38;;;;;;;1.38;0.90;;;26.20;42.40;;;;;;5056059;28;20116;-60
2021/06/14 02:31:04;;;;;;;0.73;0.63;;;26.20;42.40;;;;;;5045566;28;20029;-60
2021/06/14 02:33:30;;;;;;;0.77;0.60;;;26.20;42.40;;;;;;5062289;28;20064;-61
2021/06/14 02:35:57;;;;;;;1.08;0.77;;;26.20;42.40;;;;;;5066146;28;20803;-61
2021/06/14 02:38:24;;;;;;;1.38;0.90;;;26.20;42.40;;;;;;5056318;28;20016;-61
2021/06/14 02:40:49;;;;;;;0.90;0.73;;;26.20;42.40;;;;;;5067916;28;20029;-60
2021/06/14 02:43:15;;;;;;;1.13;0.70;;;26.20;42.40;;;;;;5068959;28;20071;-59
2021/06/14 02:45:43;;;;;;;0.82;0.70;;;26.20;42.50;;;;;;5065629;28;20033;-60
2021/06/14 02:48:10;;;;;;;1.23;0.80;;;26.10;42.40;;;;;;5051836;28;20056;-61
2021/06/14 02:50:38;;;;;;;1.20;0.80;;;26.10;42.40;;;;;;5043853;28;20044;-60
2021/06/14 02:53:08;;;;;;;0.95;0.80;;;26.10;42.40;;;;;;5058936;28;20028;-61
2021/06/14 02:55:39;;;;;;;1.08;0.70;;;26.10;42.40;;;;;;5058139;28;20126;-61
2021/06/14 02:58:06;;;;;;;1.33;0.80;;;26.10;42.40;;;;;;5066284;28;20048;-61
2021/06/14 03:00:32;;;;;;;1.10;0.70;;;26.10;42.50;;;;;;5065770;28;20056;-60
2021/06/14 03:03:04;;;;;;;1.25;0.88;;;26.10;42.50;;;;;;5048896;28;20029;-60
2021/06/14 03:05:31;;;;;;;1.27;0.80;;;26.10;42.50;;;;;;5057121;28;20036;-60
2021/06/14 03:07:58;;;;;;;1.02;0.73;;;26.10;42.50;;;;;;5065384;28;20033;-61
2021/06/14 03:10:26;;;;;;;1.00;0.80;;;26.10;42.50;;;;;;5063889;28;20108;-60
2021/06/14 03:12:56;;;;;;;1.30;0.80;;;26.10;43.10;;;;;;5057914;28;20028;-60
2021/06/14 03:15:25;;;;;;;1.25;0.80;;;26.10;42.50;;;;;;5057717;28;20056;-61
2021/06/14 03:17:52;;;;;;;1.23;0.85;;;26.10;42.60;;;;;;5055219;28;20490;-60
2021/06/14 03:20:20;;;;;;;1.30;1.00;;;26.10;42.60;;;;;;5052803;28;20033;-60
2021/06/14 03:22:47;;;;;;;0.73;0.70;;;26.00;42.50;;;;;;5056396;28;20109;-59
2021/06/14 03:25:13;;;;;;;0.70;0.70;;;26.00;42.50;;;;;;5066980;28;20585;-60
2021/06/14 03:27:40;;;;;;;0.70;0.68;;;26.00;42.60;;;;;;5061672;28;20140;-60
2021/06/14 03:30:07;;;;;;;0.80;0.70;;;26.00;42.60;;;;;;5060022;28;20431;-60
2021/06/14 03:32:38;;;;;;;1.10;0.80;;;26.00;42.60;;;;;;5062632;28;20030;-60
2021/06/14 03:35:05;;;;;;;1.08;0.82;;;26.00;42.60;;;;;;5054285;28;20051;-60
2021/06/14 03:37:33;;;;;;;1.08;0.82;;;26.00;42.60;;;;;;5058675;28;20029;-60
2021/06/14 03:39:59;;;;;;;1.27;0.87;;;26.00;42.60;;;;;;5066579;28;20033;-62
2021/06/14 03:42:30;;;;;;;0.77;0.73;;;26.00;42.60;;;;;;5059524;28;20078;-62
2021/06/14 03:44:55;;;;;;;0.93;0.80;;;26.00;42.70;;;;;;5061855;28;20099;-61
2021/06/14 03:47:21;;;;;;;0.70;0.70;;;26.00;42.60;;;;;;5060071;28;20769;-60
2021/06/14 03:49:47;;;;;;;1.42;0.70;;;26.00;42.70;;;;;;5064650;28;20051;-61
2021/06/14 03:52:12;;;;;;;1.15;0.70;;;25.90;42.60;;;;;;5049025;28;20263;-61
2021/06/14 03:54:38;;;;;;;1.10;0.82;;;25.90;42.60;;;;;;5047956;28;20327;-61
2021/06/14 03:57:04;;;;;;;1.10;0.90;;;25.90;42.60;;;;;;5050407;28;20025;-61
2021/06/14 03:59:30;;;;;;;3.85;1.50;;;25.90;42.00;;;;;;5052560;28;20024;-61
2021/06/14 04:01:56;;;;;;;3.83;1.70;;;25.80;39.00;;;;;;5048580;28;20522;-60
2021/06/14 04:07:05;;;;;;;4.05;1.75;;;25.60;37.50;;;;;;5047185;28;20043;-62
2021/06/14 04:09:31;;;;;;;3.67;1.80;;;25.40;37.20;;;;;;5061530;28;20032;-61
2021/06/14 04:11:57;;;;;;;2.58;1.45;;;25.30;37.40;;;;;;5053444;28;20032;-61
2021/06/14 04:14:22;;;;;;;3.10;1.52;;;25.20;37.70;;;;;;5060058;28;20754;-60
2021/06/14 04:16:48;;;;;;;3.10;1.50;;;25.10;37.80;;;;;;5065823;28;20044;-60
2021/06/14 04:19:13;;;;;;;2.88;1.58;;;25.10;37.80;;;;;;5063965;28;20028;-60
2021/06/14 04:21:39;;;;;;;2.15;1.50;;;25.00;38.00;;;;;;5066518;28;20039;-59
2021/06/14 04:24:06;;;;;;;3.00;1.80;;;25.00;38.10;;;;;;5050421;28;20087;-60
2021/06/14 04:26:31;;;;;;;3.10;1.70;;;24.90;38.00;;;;;;5055187;28;20051;-61
2021/06/14 04:28:57;;;;;;;3.22;1.70;;;24.90;38.60;;;;;;5050854;28;20033;-60
2021/06/14 04:31:23;;;;;;;5.95;1.80;;;24.80;37.90;;;;;;5064240;28;20052;-60
2021/06/14 04:33:49;;;;;;;3.03;1.60;;;24.80;38.00;;;;;;5061767;28;20064;-60
2021/06/14 04:36:14;;;;;;;3.15;1.65;;;24.70;38.10;;;;;;5045786;28;20036;-60
2021/06/14 04:38:40;;;;;;;3.63;1.70;;;24.60;38.30;;;;;;5046285;28;20064;-60
2021/06/14 04:41:06;;;;;;;3.05;1.85;;;24.60;38.50;;;;;;5053214;28;20067;-60
2021/06/14 04:43:32;;;;;;;3.10;1.85;;;24.50;38.50;;;;;;5065681;28;20029;-61
2021/06/14 04:45:58;;;;;;;4.22;1.73;;;24.40;38.50;;;;;;5061463;28;20020;-59
2021/06/14 04:48:23;;;;;;;3.53;1.77;;;24.30;38.60;;;;;;5049700;28;20455;-59
2021/06/14 04:50:49;;;;;;;3.33;1.75;;;24.30;38.80;;;;;;5057957;28;20048;-59
2021/06/14 04:53:15;;;;;;;4.03;1.90;;;24.20;38.80;;;;;;5053047;28;20097;-59
2021/06/14 04:55:41;;;;;;;4.78;2.13;;;24.20;38.90;;;;;;5063034;28;20024;-59
2021/06/14 04:58:07;;;;;;;3.67;1.60;;;24.10;39.10;;;;;;5049857;28;20036;-59
2021/06/14 05:00:34;;;;;;;3.65;1.80;;;24.00;39.40;;;;;;5057069;28;20074;-60
2021/06/14 05:03:00;;;;;;;3.60;2.10;;;24.00;39.40;;;;;;5048492;28;20033;-60
2021/06/14 05:05:26;;;;;;;4.07;1.80;;;23.90;39.50;;;;;;5064225;28;20059;-60
2021/06/14 05:07:52;;;;;;;2.92;1.88;;;23.80;39.70;;;;;;5055134;28;20443;-59
2021/06/14 05:10:18;;;;;;;5.38;1.83;;;23.80;40.00;;;;;;5048450;28;20025;-60
2021/06/14 05:12:43;;;;;;;3.70;1.88;;;23.70;40.20;;;;;;5046305;28;20456;-61
2021/06/14 05:15:10;;;;;;;4.30;2.08;;;23.60;40.20;;;;;;5058562;28;20029;-60
2021/06/14 05:17:35;;;;;;;5.82;2.20;;;23.60;40.10;;;;;;5052560;28;20028;-61
2021/06/14 05:20:02;;;;;;;4.22;2.10;;;23.50;40.30;;;;;;5052320;28;20020;-59
2021/06/14 05:22:28;;;;;;;3.53;1.70;;;23.50;40.70;;;;;;5048015;28;20033;-60
2021/06/14 05:24:53;;;;;;;3.67;2.03;;;23.50;41.00;;;;;;5047465;28;20036;-60
2021/06/14 05:27:19;;;;;;;2.97;1.55;;;23.60;40.90;;;;;;5063619;28;20561;-59
2021/06/14 05:29:45;;;;;;;3.00;1.70;;;23.60;41.20;;;;;;5070473;28;20024;-60
2021/06/14 05:32:10;;;;;;;3.78;1.73;;;23.70;41.10;;;;;;5064101;28;20133;-60
2021/06/14 05:34:36;;;;;;;3.63;1.55;;;23.70;41.20;;;;;;5056874;28;20471;-60
2021/06/14 05:37:01;;;;;;;3.15;1.38;;;23.80;41.20;;;;;;5050030;28;20036;-60
2021/06/14 05:39:27;;;;;;;3.40;1.33;;;23.90;41.00;;;;;;5051430;28;20475;-59
2021/06/14 05:41:53;;;;;;;3.65;1.42;;;23.90;41.10;;;;;;5053397;28;20117;-60
2021/06/14 05:44:19;;;;;;;4.22;1.45;;;23.90;41.20;;;;;;5055649;28;20558;-60
2021/06/14 05:46:44;;;;;;;3.35;1.40;;;24.00;41.10;;;;;;5053005;28;20135;-60
2021/06/14 05:49:10;;;;;;;3.58;1.48;;;24.10;41.10;;;;;;5066237;28;20052;-60
2021/06/14 05:51:35;;;;;;;2.85;1.50;;;24.10;41.00;;;;;;5064122;28;20041;-59
2021/06/14 05:54:01;;;;;;;3.88;1.73;;;24.10;41.00;;;;;;5059647;28;20060;-60
2021/06/14 05:56:27;;;;;;;2.47;1.33;;;24.20;41.00;;;;;;5058822;28;20436;-60
2021/06/14 05:58:53;;;;;;;3.47;1.55;;;24.20;41.00;;;;;;5059866;28;20561;-60
2021/06/14 06:01:19;;;;;;;2.50;1.25;;;24.20;41.00;;;;;;5053864;28;20045;-60
2021/06/14 06:03:45;;;;;;;2.90;1.30;;;24.30;41.10;;;;;;5051387;28;20040;-59
2021/06/14 06:06:10;;;;;;;3.35;1.50;;;24.30;41.00;;;;;;5063095;28;20028;-61
2021/06/14 06:08:36;;;;;;;3.42;1.50;;;24.30;41.00;;;;;;5067040;28;20121;-59
2021/06/14 06:11:03;;;;;;;2.88;1.25;;;24.30;41.00;;;;;;5054819;28;20104;-60
2021/06/14 06:13:28;;;;;;;3.65;1.50;;;24.40;41.20;;;;;;5069559;28;20473;-60
2021/06/14 06:15:54;;;;;;;3.80;1.55;;;24.40;41.10;;;;;;5067682;28;20017;-60
2021/06/14 06:18:19;;;;;;;2.55;1.40;;;24.40;41.00;;;;;;5049692;28;20557;-60
2021/06/14 06:20:45;;;;;;;2.78;1.40;;;24.40;41.10;;;;;;5055557;28;20112;-60
2021/06/14 06:23:11;;;;;;;3.03;1.40;;;24.50;41.00;;;;;;5062480;28;20047;-60
2021/06/14 06:25:36;;;;;;;2.10;1.40;;;24.50;41.00;;;;;;5059301;28;20032;-59
2021/06/14 06:28:03;;;;;;;2.40;1.30;;;24.50;41.20;;;;;;5051600;28;20076;-60
2021/06/14 06:30:30;;;;;;;2.85;1.58;;;24.60;41.10;;;;;;5058469;28;20119;-60
2021/06/14 06:32:56;;;;;;;2.22;1.20;;;24.60;41.20;;;;;;5049309;28;20064;-60
2021/06/14 06:35:22;;;;;;;2.70;1.33;;;24.60;41.30;;;;;;5050327;28;20029;-59
2021/06/14 06:37:49;;;;;;;3.10;1.35;;;24.60;41.20;;;;;;5048925;28;20404;-59
2021/06/14 06:40:15;;;;;;;2.65;1.30;;;24.70;41.40;;;;;;5049667;28;20770;-60
2021/06/14 06:42:41;;;;;;;2.22;1.20;;;24.70;41.30;;;;;;5063826;28;20031;-60
2021/06/14 06:45:09;;;;;;;2.13;1.30;;;24.80;41.20;;;;;;5052108;28;20095;-60
2021/06/14 06:47:35;;;;;;;2.20;1.20;;;24.80;41.30;;;;;;5050518;28;20029;-60
2021/06/14 06:50:02;;;;;;;2.25;1.27;;;24.80;41.40;;;;;;5049957;28;20033;-59
2021/06/14 06:52:28;;;;;;;3.17;1.40;;;24.80;41.20;;;;;;5059958;28;20139;-60
2021/06/14 06:54:54;;;;;;;2.13;1.20;;;24.80;41.20;;;;;;5067457;28;20171;-60
2021/06/14 06:57:20;;;;;;;3.55;1.60;;;24.90;41.40;;;;;;5071896;28;20045;-60
2021/06/14 06:59:46;;;;;;;2.08;1.17;;;24.90;41.30;;;;;;5068882;28;20163;-59
2021/06/14 07:02:12;;;;;;;2.60;1.25;;;24.90;41.20;;;;;;5056766;28;20498;-60
2021/06/14 07:04:38;;;;;;;3.28;1.65;;;24.90;41.30;;;;;;5060681;28;20043;-60
2021/06/14 07:07:05;;;;;;;2.83;1.40;;;24.90;41.40;;;;;;5068622;28;20405;-61
2021/06/14 07:09:31;;;;;;;2.05;1.38;;;25.00;41.20;;;;;;5061892;28;20098;-60
2021/06/14 07:11:57;;;;;;;2.70;1.50;;;25.00;41.20;;;;;;5060582;28;20108;-60
2021/06/14 07:14:23;;;;;;;2.67;1.40;;;25.00;41.10;;;;;;5049353;28;20763;-60
2021/06/14 07:16:49;;;;;;;2.22;1.40;;;25.00;41.10;;;;;;5051914;28;20060;-60
2021/06/14 07:19:15;;;;;;;2.13;1.15;;;25.00;41.10;;;;;;5066353;28;20106;-61
2021/06/14 07:21:40;;;;;;;2.50;1.40;;;25.10;41.10;;;;;;5055453;28;20610;-60
2021/06/14 07:24:07;;;;;;;2.33;1.30;;;25.10;41.10;;;;;;5046037;28;20480;-60
2021/06/14 07:26:33;;;;;;;3.30;1.45;;;25.10;41.10;;;;;;5053583;28;20032;-60
2021/06/14 07:28:59;;;;;;;3.00;1.45;;;25.10;41.10;;;;;;5063061;28;20108;-59
2021/06/14 07:31:25;;;;;;;1.73;1.10;;;25.10;41.30;;;;;;5055669;28;20040;-59
2021/06/14 07:33:51;;;;;;;1.85;1.25;;;25.20;41.40;;;;;;5063262;28;20070;-59
2021/06/14 07:36:17;;;;;;;2.05;1.20;;;25.20;41.50;;;;;;5062594;28;20017;-59
2021/06/14 07:38:42;;;;;;;2.50;1.20;;;25.20;41.50;;;;;;5052110;28;20029;-60
2021/06/14 07:41:09;;;;;;;2.22;1.20;;;25.20;41.30;;;;;;5060953;28;20032;-60
2021/06/14 07:43:35;;;;;;;2.45;1.20;;;25.30;41.30;;;;;;5062816;28;20024;-61
2021/06/14 07:46:01;;;;;;;4.13;1.27;;;25.30;41.50;;;;;;5074849;28;20023;-60
2021/06/14 07:48:27;;;;;;;3.75;1.20;;;25.30;41.30;;;;;;5055305;28;20132;-60
2021/06/14 07:50:54;;;;;;;2.35;1.25;;;25.30;41.30;;;;;;5048447;28;20033;-61
2021/06/14 07:53:20;;;;;;;2.10;1.30;;;25.30;41.50;;;;;;5047142;28;20090;-60
2021/06/14 07:55:47;;;;;;;2.35;1.20;;;25.40;41.70;;;;;;5054632;28;20519;-60
2021/06/14 07:58:14;;;;;;;1.73;1.13;;;25.40;41.80;;;;;;5065481;28;20099;-60
2021/06/14 08:00:40;;;;;;;2.40;1.25;;;25.40;41.50;;;;;;5048539;28;20065;-60
2021/06/14 08:03:07;;;;;;;2.42;1.35;;;25.40;41.60;;;;;;5051774;28;20648;-59
2021/06/14 08:05:33;;;;;;;2.63;1.10;;;25.40;41.50;;;;;;5067306;28;20036;-61
2021/06/14 08:07:58;;;;;;;2.88;1.40;;;25.40;41.90;;;;;;5046667;28;20067;-60
2021/06/14 08:10:24;;;;;;;1.95;1.08;;;25.40;41.80;;;;;;5049846;28;20402;-60
2021/06/14 08:12:51;;;;;;;2.20;1.30;;;25.50;41.90;;;;;;5061822;28;20036;-60
2021/06/14 08:15:26;;;;;;;1.70;1.08;;;25.50;41.60;;;;;;5057510;28;20070;-59
2021/06/14 08:17:56;;;;;;;2.35;1.30;;;25.50;41.60;;;;;;5055645;28;20059;-60
2021/06/14 08:25:37;;;;;;;2.65;1.35;;;25.50;41.60;;;;;;5053840;28;20498;-60
2021/06/14 08:28:04;;;;;;;2.65;1.35;;;25.50;41.60;;;;;;5046856;28;20032;-59
2021/06/14 08:30:35;;;;;;;2.35;1.40;;;25.60;41.70;;;;;;5054335;28;20074;-60
2021/06/14 08:33:00;;;;;;;2.53;1.23;;;25.60;41.60;;;;;;5060120;28;20222;-60
2021/06/14 08:35:28;;;;;;;2.03;1.23;;;25.60;41.70;;;;;;5052661;28;20135;-60
2021/06/14 08:37:55;;;;;;;2.10;1.20;;;25.60;41.70;;;;;;5062395;28;20028;-60
2021/06/14 08:40:24;;;;;;;2.08;1.20;;;25.60;41.70;;;;;;5066988;28;20160;-60
2021/06/14 08:42:50;;;;;;;2.10;1.30;;;25.60;41.60;;;;;;5050289;28;20139;-60
2021/06/14 08:45:18;;;;;;;1.77;1.20;;;25.60;41.60;;;;;;5063329;28;20803;-60
2021/06/14 08:47:46;;;;;;;1.63;1.00;;;25.70;41.60;;;;;;5065393;28;20168;-59
2021/06/14 08:50:14;;;;;;;2.25;1.20;;;25.70;41.70;;;;;;5065892;28;20029;-60
2021/06/14 08:52:42;;;;;;;1.95;1.30;;;25.70;41.60;;;;;;5063752;28;20028;-60
2021/06/14 08:55:11;;;;;;;3.45;1.30;;;25.70;41.60;;;;;;5048232;28;20021;-60
2021/06/14 08:57:37;;;;;;;;;;;25.70;41.60;;;;;;5048882;28;20063;-61
2021/06/14 09:00:05;;;;;;;2.05;1.10;;;25.70;41.60;;;;;;5063250;28;20427;-59
2021/06/14 09:02:31;;;;;;;2.38;1.17;;;25.70;41.70;;;;;;5058094;28;20033;-60
2021/06/14 09:04:57;;;;;;;2.17;1.25;;;25.70;41.70;;;;;;5049020;28;20036;-60
2021/06/14 09:07:22;;;;;;;1.88;1.10;;;25.70;41.70;;;;;;5051409;28;20055;-59
2021/06/14 09:09:49;;;;;;;1.80;1.10;;;25.80;41.70;;;;;;5057133;28;20032;-60
2021/06/14 09:12:14;;;;;;;1.90;1.20;;;25.80;41.70;;;;;;5049974;28;20029;-60
2021/06/14 09:14:43;;;;;;;1.88;1.20;;;25.80;41.70;;;;;;5051840;28;20037;-60
2021/06/14 09:17:14;;;;;;;1.80;1.20;;;25.80;41.70;;;;;;5056710;28;20047;-61
2021/06/14 09:19:51;;;;;;;2.13;1.20;;;25.80;41.70;;;;;;5054577;28;20025;-60
2021/06/14 09:22:20;;;;;;;1.83;1.15;;;25.80;41.70;;;;;;5044824;28;20032;-61
2021/06/14 09:24:55;;;;;;;;;;;25.80;41.70;;;;;;5052929;28;20044;-60
2021/06/14 09:27:37;;;;;;;1.85;1.15;;;25.80;41.70;;;;;;5047197;28;20427;-59
2021/06/14 09:30:12;;;;;;;2.63;1.20;;;25.80;41.80;;;;;;5059995;28;20467;-60
2021/06/14 09:32:52;;;;;;;1.35;1.00;;;25.90;41.80;;;;;;5052469;28;20068;-60
2021/06/14 09:35:19;;;;;;;1.60;1.10;;;25.90;41.80;;;;;;5048297;28;20040;-61
2021/06/14 09:37:59;;;;;;;2.05;1.17;;;25.90;41.90;;;;;;5049649;28;20028;-60
2021/06/14 09:40:43;;;;;;;1.25;0.90;;;25.90;42.00;;;;;;5049973;28;20486;-60
2021/06/14 09:43:31;;;;;;;1.50;0.95;;;25.90;42.00;;;;;;5049846;28;20059;-60
2021/06/14 09:45:59;;;;;;;2.13;1.13;;;25.90;41.90;;;;;;5050111;28;20479;-60
2021/06/14 09:48:27;;;;;;;1.40;1.00;;;25.90;41.90;;;;;;5060911;28;20079;-60
2021/06/14 09:50:55;;;;;;;1.90;1.20;;;25.90;41.90;;;;;;5050197;28;20704;-60
2021/06/14 09:53:23;;;;;;;2.25;1.30;;;25.90;41.90;;;;;;5049723;28;20032;-61
2021/06/14 09:55:52;;;;;;;2.78;1.50;;;26.00;42.00;;;;;;5057335;28;20475;-60
2021/06/14 09:58:24;;;;;;;2.13;1.13;;;26.00;42.10;;;;;;5068050;28;20450;-60
2021/06/14 10:00:57;;;;;;;2.17;1.02;;;26.00;42.10;;;;;;5063480;28;20032;-59
2021/06/14 10:03:29;;;;;;;1.55;1.00;;;26.00;42.00;;;;;;5050060;28;20071;-61
2021/06/14 10:05:56;;;;;;;2.50;1.00;;;26.00;42.20;;;;;;5061793;28;20044;-60
2021/06/14 10:08:31;;;;;;;1.52;1.00;;;26.00;42.40;;;;;;5058025;28;20568;-60
2021/06/14 10:11:13;;;;;;;0.80;0.75;;;26.00;42.60;;;;;;5066040;28;20033;-59
2021/06/14 10:13:44;;;;;;;2.45;0.88;;;26.00;42.70;;;;;;5049217;28;20033;-60
2021/06/14 10:16:24;;;;;;;1.80;1.08;;;26.10;42.90;;;;;;5050658;28;20124;-60
2021/06/14 10:18:58;;;;;;;2.00;1.10;;;26.10;42.60;;;;;;5057801;28;20223;-61
2021/06/14 10:21:29;;;;;;;1.58;1.10;;;26.10;42.50;;;;;;5067982;28;20020;-60
2021/06/14 10:23:55;;;;;;;1.58;1.00;;;26.10;42.60;;;;;;5052461;28;20036;-60
2021/06/14 10:26:28;;;;;;;1.80;1.08;;;26.10;42.50;;;;;;5062444;28;20042;-59
2021/06/14 10:28:55;;;;;;;1.90;1.13;;;26.10;42.40;;;;;;5057506;28;20074;-60
2021/06/14 10:31:22;;;;;;;1.60;1.00;;;26.10;42.40;;;;;;5059973;28;20056;-60
2021/06/14 10:33:50;;;;;;;2.72;1.40;;;26.10;42.50;;;;;;5059936;28;20546;-59
2021/06/14 10:36:17;;;;;;;1.75;1.10;;;26.10;42.50;;;;;;5054726;28;20387;-59
2021/06/14 10:38:45;;;;;;;2.03;1.05;;;26.10;42.50;;;;;;5048867;28;20025;-60
2021/06/14 10:41:12;;;;;;;2.30;1.40;;;26.10;42.80;;;;;;5064396;28;20036;-60
2021/06/14 10:43:39;;;;;;;2.10;1.13;;;26.10;42.80;;;;;;5068309;28;20060;-60
2021/06/14 10:46:10;;;;;;;2.00;1.15;;;26.10;43.40;;;;;;5050599;28;20037;-61
2021/06/14 10:48:37;;;;;;;2.75;1.27;;;26.10;42.80;;;;;;5058719;28;20028;-60
2021/06/14 10:51:15;;;;;;;2.83;1.40;;;26.10;42.80;;;;;;5051836;28;20393;-60
2021/06/14 10:53:41;;;;;;;2.38;1.35;;;26.10;42.80;;;;;;5054324;28;20119;-61
2021/06/14 10:56:08;;;;;;;2.72;1.30;;;26.10;42.80;;;;;;5066819;28;20033;-59
2021/06/14 10:58:35;;;;;;;2.30;1.20;;;26.10;42.80;;;;;;5065254;28;20024;-60
2021/06/14 11:01:07;;;;;;;3.10;1.33;;;26.10;42.90;;;;;;5057766;28;20044;-59
2021/06/14 11:03:44;;;;;;;3.28;1.35;;;26.10;43.00;;;;;;5063005;28;20039;-62
2021/06/14 11:06:20;;;;;;;3.20;1.30;;;26.10;42.90;;;;;;5051015;28;20113;-60
2021/06/14 11:08:56;;;;;;;2.33;1.40;;;26.10;43.00;;;;;;5057052;28;20083;-60
2021/06/14 11:11:22;;;;;;;1.95;1.30;;;26.10;43.00;;;;;;5046623;28;20025;-60
2021/06/14 11:13:49;;;;;;;1.95;1.10;;;26.10;43.10;;;;;;5044498;28;20390;-60
2021/06/14 11:16:15;;;;;;;2.00;1.10;;;26.10;43.20;;;;;;5065931;28;20020;-62
2021/06/14 11:18:41;;;;;;;2.53;1.20;;;26.20;43.30;;;;;;5053243;28;20052;-61
2021/06/14 11:21:15;;;;;;;2.15;1.10;;;26.20;43.40;;;;;;5062235;28;20072;-61
2021/06/14 11:23:43;;;;;;;1.80;1.05;;;26.20;43.40;;;;;;5063285;28;20028;-61
2021/06/14 11:26:11;;;;;;;2.70;1.20;;;26.20;43.50;;;;;;5052195;28;20435;-60
2021/06/14 11:28:39;;;;;;;1.95;1.08;;;26.30;43.50;;;;;;5057542;28;20032;-61
2021/06/14 11:31:20;;;;;;;1.67;1.10;;;26.30;43.90;;;;;;5055608;28;20044;-61
2021/06/14 11:33:47;;;;;;;2.08;1.15;;;26.30;43.40;;;;;;5046208;28;20486;-63
2021/06/14 11:36:27;;;;;;;2.05;1.10;;;26.40;43.40;;;;;;5057166;28;20101;-61
2021/06/14 11:38:55;;;;;;;1.35;0.90;;;26.50;43.40;;;;;;5047914;28;20052;-59
2021/06/14 11:41:39;;;;;;;2.03;1.25;;;26.50;43.50;;;;;;5053801;28;20387;-62
2021/06/14 11:44:48;;;;;;;1.63;0.95;;;26.50;43.50;;;;;;5047894;28;20386;-61
2021/06/14 11:47:24;;;;;;;1.90;1.00;;;26.50;43.40;;;;;;5027375;28;20062;-62
2021/06/14 11:49:51;;;;;;;1.60;1.08;;;26.50;43.30;;;;;;5047947;28;20371;-61
2021/06/14 11:52:27;;;;;;;2.10;1.02;;;26.60;43.30;;;;;;5056392;28;20029;-60
2021/06/14 11:54:56;;;;;;;1.88;1.10;;;26.60;43.30;;;;;;5054511;28;20028;-59
2021/06/14 11:57:39;;;;;;;2.47;1.13;;;26.60;43.30;;;;;;5063441;28;20024;-62
2021/06/14 12:00:24;;;;;;;1.80;1.10;;;26.70;43.30;;;;;;5068002;28;20024;-60
2021/06/14 12:02:50;;;;;;;3.17;1.10;;;26.70;43.30;;;;;;5054767;28;20336;-62
2021/06/14 12:05:16;;;;;;;1.85;1.10;;;26.70;43.40;;;;;;5059262;28;20021;-64
2021/06/14 12:07:41;;;;;;;1.58;1.00;;;26.70;43.30;;;;;;5055951;28;20025;-62
2021/06/14 12:10:13;;;;;;;1.98;1.05;;;26.70;43.30;;;;;;5058810;28;20127;-61
2021/06/14 12:12:40;;;;;;;2.70;1.10;;;26.70;43.30;;;;;;5061962;28;20147;-61
2021/06/14 12:15:08;;;;;;;1.73;1.00;;;26.80;43.20;;;;;;5055306;28;20029;-61
2021/06/14 12:17:36;;;;;;;2.00;1.10;;;26.80;43.10;;;;;;5066551;28;20127;-61
2021/06/14 12:20:23;;;;;;;2.00;1.20;;;26.80;43.10;;;;;;5065137;28;20017;-60
2021/06/14 12:23:16;;;;;;;2.25;1.30;;;26.80;43.00;;;;;;5055915;28;20794;-61
2021/06/14 12:25:47;;;;;;;1.52;1.00;;;26.80;43.10;;;;;;5052973;28;20028;-61
2021/06/14 12:28:16;;;;;;;1.25;0.93;;;26.90;43.10;;;;;;5047424;28;20052;-62
2021/06/14 12:30:44;;;;;;;2.60;1.20;;;26.90;43.00;;;;;;5047665;28;20508;-60
2021/06/14 12:33:10;;;;;;;1.80;1.20;;;26.90;43.00;;;;;;5050390;28;20108;-60
2021/06/14 12:35:37;;;;;;;4.40;1.25;;;26.90;42.90;;;;;;5048310;28;20112;-61
2021/06/14 12:38:10;;;;;;;1.67;1.00;;;27.00;42.80;;;;;;5067156;28;20044;-60
2021/06/14 12:40:39;;;;;;;2.15;1.02;;;27.00;42.80;;;;;;5065843;28;20025;-61
2021/06/14 12:43:09;;;;;;;1.40;0.90;;;27.00;42.80;;;;;;5060834;28;20471;-61
2021/06/14 12:45:37;;;;;;;2.28;1.20;;;27.00;42.80;;;;;;5063141;28;20082;-61
2021/06/14 12:48:06;;;;;;;2.22;1.02;;;27.10;42.80;;;;;;5055440;28;20151;-60
2021/06/14 12:50:37;;;;;;;1.73;1.10;;;27.10;42.80;;;;;;5051376;28;20052;-60
2021/06/14 12:53:05;;;;;;;1.80;1.10;;;27.10;42.80;;;;;;5052597;28;20062;-61
2021/06/14 12:55:34;;;;;;;2.92;1.10;;;27.10;42.80;;;;;;5056407;28;20020;-60
2021/06/14 12:58:08;;;;;;;1.17;0.95;;;27.20;42.80;;;;;;5065137;28;20044;-60
2021/06/14 13:00:37;;;;;;;1.88;1.13;;;27.20;42.70;;;;;;5065388;28;20787;-61
2021/06/14 13:03:03;;;;;;;2.33;1.27;;;27.20;42.70;;;;;;5064329;28;20065;-61